Sarnen, Switzerland
Current Conditions -  °F | °C
As of 5:50 PM on Wednesday 26 Nov 2014 (Local Time) from LSMA Reporting Station
Overcast Overcast  
Wind Chill: 48°   Ceiling: 1000
Heat Index: 48°   Visibility: 6mi
Dew Point: 46°   Wind: 1mph
Humidity: 93%   Direction: NA
Pressure: 29.91"   Gusts: NA
Location:  46.91°N, 8.25°E
Report Text: LSMA 261650Z VRB01KT 9999 OVC010 09/08 Q1013 RMK GRN
Loading
Personal Weather Stations






























Interactive Weather Map New forecast layout! Learn more

10-Day Weather Forecast

Advertisements
Track Severe Weather on mobile